sensor_id;sensor_type;location;lat;lon;timestamp;P1;durP1;ratioP1;P2;durP2;ratioP2
51190;SDS011;37253;48.736;9.294;2022-09-03T00:02:04;2.78;;;1.58;;
51190;SDS011;37253;48.736;9.294;2022-09-03T00:04:10;3.40;;;1.60;;
51190;SDS011;37253;48.736;9.294;2022-09-03T00:08:26;1.88;;;1.60;;
51190;SDS011;37253;48.736;9.294;2022-09-03T00:10:45;3.22;;;1.70;;
51190;SDS011;37253;48.736;9.294;2022-09-03T00:12:51;1.92;;;1.42;;
51190;SDS011;37253;48.736;9.294;2022-09-03T00:14:58;5.00;;;1.80;;
51190;SDS011;37253;48.736;9.294;2022-09-03T00:17:03;5.07;;;1.77;;
51190;SDS011;37253;48.736;9.294;2022-09-03T00:19:06;4.13;;;1.40;;
51190;SDS011;37253;48.736;9.294;2022-09-03T00:21:09;2.92;;;1.73;;
51190;SDS011;37253;48.736;9.294;2022-09-03T00:23:13;4.25;;;1.60;;
51190;SDS011;37253;48.736;9.294;2022-09-03T00:25:25;4.30;;;1.70;;
51190;SDS011;37253;48.736;9.294;2022-09-03T00:27:35;2.85;;;1.48;;
51190;SDS011;37253;48.736;9.294;2022-09-03T00:29:38;3.05;;;1.80;;
51190;SDS011;37253;48.736;9.294;2022-09-03T00:31:58;7.05;;;1.80;;
51190;SDS011;37253;48.736;9.294;2022-09-03T00:34:04;2.08;;;1.33;;
51190;SDS011;37253;48.736;9.294;2022-09-03T00:38:13;2.35;;;1.50;;
51190;SDS011;37253;48.736;9.294;2022-09-03T00:40:32;2.45;;;1.58;;
51190;SDS011;37253;48.736;9.294;2022-09-03T00:46:52;4.00;;;1.80;;
51190;SDS011;37253;48.736;9.294;2022-09-03T00:51:25;4.97;;;1.67;;
51190;SDS011;37253;48.736;9.294;2022-09-03T00:53:34;2.67;;;1.55;;
51190;SDS011;37253;48.736;9.294;2022-09-03T00:55:57;4.50;;;1.50;;
51190;SDS011;37253;48.736;9.294;2022-09-03T01:00:28;2.55;;;1.45;;
51190;SDS011;37253;48.736;9.294;2022-09-03T01:15:04;2.38;;;1.50;;
51190;SDS011;37253;48.736;9.294;2022-09-03T01:17:23;3.95;;;1.60;;
51190;SDS011;37253;48.736;9.294;2022-09-03T01:19:37;2.30;;;1.52;;
51190;SDS011;37253;48.736;9.294;2022-09-03T01:26:46;2.72;;;1.60;;
51190;SDS011;37253;48.736;9.294;2022-09-03T01:33:36;2.05;;;1.40;;
51190;SDS011;37253;48.736;9.294;2022-09-03T01:35:47;2.22;;;1.30;;
51190;SDS011;37253;48.736;9.294;2022-09-03T01:40:17;2.63;;;1.63;;
51190;SDS011;37253;48.736;9.294;2022-09-03T01:44:53;4.22;;;1.40;;
51190;SDS011;37253;48.736;9.294;2022-09-03T01:49:47;2.35;;;1.40;;
51190;SDS011;37253;48.736;9.294;2022-09-03T01:52:11;1.63;;;1.38;;
51190;SDS011;37253;48.736;9.294;2022-09-03T01:56:36;1.95;;;1.35;;
51190;SDS011;37253;48.736;9.294;2022-09-03T01:59:08;1.85;;;1.58;;
51190;SDS011;37253;48.736;9.294;2022-09-03T02:01:24;2.67;;;1.67;;
51190;SDS011;37253;48.736;9.294;2022-09-03T02:03:32;1.60;;;1.50;;
51190;SDS011;37253;48.736;9.294;2022-09-03T02:05:38;2.88;;;1.52;;
51190;SDS011;37253;48.736;9.294;2022-09-03T02:07:43;1.67;;;1.40;;
51190;SDS011;37253;48.736;9.294;2022-09-03T02:09:45;2.13;;;1.48;;
51190;SDS011;37253;48.736;9.294;2022-09-03T02:11:48;1.88;;;1.35;;
51190;SDS011;37253;48.736;9.294;2022-09-03T02:13:52;1.60;;;1.50;;
51190;SDS011;37253;48.736;9.294;2022-09-03T02:15:55;2.20;;;1.45;;
51190;SDS011;37253;48.736;9.294;2022-09-03T02:17:58;2.33;;;1.38;;
51190;SDS011;37253;48.736;9.294;2022-09-03T02:20:05;2.78;;;1.60;;
51190;SDS011;37253;48.736;9.294;2022-09-03T02:22:10;1.80;;;1.58;;
51190;SDS011;37253;48.736;9.294;2022-09-03T02:24:11;3.17;;;1.40;;
51190;SDS011;37253;48.736;9.294;2022-09-03T02:26:12;1.60;;;1.30;;
51190;SDS011;37253;48.736;9.294;2022-09-03T02:30:15;1.77;;;1.30;;
51190;SDS011;37253;48.736;9.294;2022-09-03T02:32:17;2.17;;;1.50;;
51190;SDS011;37253;48.736;9.294;2022-09-03T02:34:17;1.90;;;1.30;;
51190;SDS011;37253;48.736;9.294;2022-09-03T02:36:19;4.28;;;1.40;;
51190;SDS011;37253;48.736;9.294;2022-09-03T02:38:27;1.75;;;1.60;;
51190;SDS011;37253;48.736;9.294;2022-09-03T02:40:27;2.35;;;1.30;;
51190;SDS011;37253;48.736;9.294;2022-09-03T02:42:27;2.25;;;1.48;;
51190;SDS011;37253;48.736;9.294;2022-09-03T02:44:29;1.90;;;1.70;;
51190;SDS011;37253;48.736;9.294;2022-09-03T02:48:33;2.22;;;1.55;;
51190;SDS011;37253;48.736;9.294;2022-09-03T02:50:39;2.53;;;1.45;;
51190;SDS011;37253;48.736;9.294;2022-09-03T02:52:40;2.45;;;1.60;;
51190;SDS011;37253;48.736;9.294;2022-09-03T02:54:41;3.08;;;1.20;;
51190;SDS011;37253;48.736;9.294;2022-09-03T02:56:44;3.30;;;1.65;;
51190;SDS011;37253;48.736;9.294;2022-09-03T03:00:47;1.95;;;1.40;;
51190;SDS011;37253;48.736;9.294;2022-09-03T03:02:48;2.95;;;1.50;;
51190;SDS011;37253;48.736;9.294;2022-09-03T03:04:49;2.60;;;1.35;;
51190;SDS011;37253;48.736;9.294;2022-09-03T03:06:49;2.20;;;1.50;;
51190;SDS011;37253;48.736;9.294;2022-09-03T03:08:50;1.98;;;1.30;;
51190;SDS011;37253;48.736;9.294;2022-09-03T03:10:51;1.67;;;1.33;;
51190;SDS011;37253;48.736;9.294;2022-09-03T03:12:53;2.78;;;1.50;;
51190;SDS011;37253;48.736;9.294;2022-09-03T03:14:53;1.90;;;1.30;;
51190;SDS011;37253;48.736;9.294;2022-09-03T03:16:53;2.33;;;1.38;;
51190;SDS011;37253;48.736;9.294;2022-09-03T03:18:57;3.20;;;1.40;;
51190;SDS011;37253;48.736;9.294;2022-09-03T03:21:02;4.10;;;1.20;;
51190;SDS011;37253;48.736;9.294;2022-09-03T03:23:04;3.05;;;1.30;;
51190;SDS011;37253;48.736;9.294;2022-09-03T03:25:04;1.83;;;1.30;;
51190;SDS011;37253;48.736;9.294;2022-09-03T03:27:05;2.05;;;1.45;;
51190;SDS011;37253;48.736;9.294;2022-09-03T03:29:13;2.13;;;1.63;;
51190;SDS011;37253;48.736;9.294;2022-09-03T03:31:17;1.40;;;1.30;;
51190;SDS011;37253;48.736;9.294;2022-09-03T03:33:18;1.45;;;1.35;;
51190;SDS011;37253;48.736;9.294;2022-09-03T03:35:19;2.15;;;1.40;;
51190;SDS011;37253;48.736;9.294;2022-09-03T03:37:20;2.08;;;1.17;;
51190;SDS011;37253;48.736;9.294;2022-09-03T03:39:20;2.88;;;1.50;;
51190;SDS011;37253;48.736;9.294;2022-09-03T03:41:24;1.50;;;1.40;;
51190;SDS011;37253;48.736;9.294;2022-09-03T03:43:26;1.55;;;1.40;;
51190;SDS011;37253;48.736;9.294;2022-09-03T03:45:26;3.28;;;1.50;;
51190;SDS011;37253;48.736;9.294;2022-09-03T03:47:28;1.60;;;1.30;;
51190;SDS011;37253;48.736;9.294;2022-09-03T03:49:30;3.60;;;1.38;;
51190;SDS011;37253;48.736;9.294;2022-09-03T03:51:30;2.35;;;1.35;;
51190;SDS011;37253;48.736;9.294;2022-09-03T03:53:34;2.60;;;1.50;;
51190;SDS011;37253;48.736;9.294;2022-09-03T03:55:36;4.40;;;1.40;;
51190;SDS011;37253;48.736;9.294;2022-09-03T03:57:38;5.18;;;1.50;;
51190;SDS011;37253;48.736;9.294;2022-09-03T03:59:38;1.40;;;1.30;;
51190;SDS011;37253;48.736;9.294;2022-09-03T04:01:38;1.95;;;1.40;;
51190;SDS011;37253;48.736;9.294;2022-09-03T04:03:39;1.48;;;1.30;;
51190;SDS011;37253;48.736;9.294;2022-09-03T04:05:40;2.35;;;1.30;;
51190;SDS011;37253;48.736;9.294;2022-09-03T04:07:40;1.83;;;1.33;;
51190;SDS011;37253;48.736;9.294;2022-09-03T04:09:40;1.52;;;1.42;;
51190;SDS011;37253;48.736;9.294;2022-09-03T04:11:41;2.20;;;1.30;;
51190;SDS011;37253;48.736;9.294;2022-09-03T04:13:42;1.50;;;1.20;;
51190;SDS011;37253;48.736;9.294;2022-09-03T04:15:43;1.70;;;1.45;;
51190;SDS011;37253;48.736;9.294;2022-09-03T04:17:43;1.70;;;1.23;;
51190;SDS011;37253;48.736;9.294;2022-09-03T04:19:44;1.65;;;1.38;;
51190;SDS011;37253;48.736;9.294;2022-09-03T04:21:47;1.52;;;1.42;;
51190;SDS011;37253;48.736;9.294;2022-09-03T04:23:47;1.55;;;1.10;;
51190;SDS011;37253;48.736;9.294;2022-09-03T04:25:52;1.50;;;1.40;;
51190;SDS011;37253;48.736;9.294;2022-09-03T04:27:52;3.97;;;1.63;;
51190;SDS011;37253;48.736;9.294;2022-09-03T04:29:53;1.48;;;1.30;;
51190;SDS011;37253;48.736;9.294;2022-09-03T04:31:53;1.70;;;1.38;;
51190;SDS011;37253;48.736;9.294;2022-09-03T04:34:12;1.70;;;1.40;;
51190;SDS011;37253;48.736;9.294;2022-09-03T04:36:14;1.38;;;1.08;;
51190;SDS011;37253;48.736;9.294;2022-09-03T04:38:18;1.70;;;1.42;;
51190;SDS011;37253;48.736;9.294;2022-09-03T04:40:19;2.00;;;1.40;;
51190;SDS011;37253;48.736;9.294;2022-09-03T04:42:19;1.52;;;1.30;;
51190;SDS011;37253;48.736;9.294;2022-09-03T04:44:19;2.25;;;1.75;;
51190;SDS011;37253;48.736;9.294;2022-09-03T04:46:21;2.40;;;1.73;;
51190;SDS011;37253;48.736;9.294;2022-09-03T04:48:22;3.15;;;1.60;;
51190;SDS011;37253;48.736;9.294;2022-09-03T04:50:22;3.13;;;1.65;;
51190;SDS011;37253;48.736;9.294;2022-09-03T04:52:23;1.92;;;1.40;;
51190;SDS011;37253;48.736;9.294;2022-09-03T04:54:23;3.28;;;1.33;;
51190;SDS011;37253;48.736;9.294;2022-09-03T04:56:25;2.30;;;1.42;;
51190;SDS011;37253;48.736;9.294;2022-09-03T04:58:26;3.80;;;1.40;;
51190;SDS011;37253;48.736;9.294;2022-09-03T05:00:27;3.47;;;1.25;;
51190;SDS011;37253;48.736;9.294;2022-09-03T05:02:27;3.78;;;1.52;;
51190;SDS011;37253;48.736;9.294;2022-09-03T05:04:28;5.82;;;1.73;;
51190;SDS011;37253;48.736;9.294;2022-09-03T05:06:28;5.57;;;1.30;;
51190;SDS011;37253;48.736;9.294;2022-09-03T05:08:30;8.98;;;1.40;;
51190;SDS011;37253;48.736;9.294;2022-09-03T05:10:31;4.55;;;1.60;;
51190;SDS011;37253;48.736;9.294;2022-09-03T05:12:31;6.15;;;1.38;;
51190;SDS011;37253;48.736;9.294;2022-09-03T05:14:32;3.92;;;1.30;;
51190;SDS011;37253;48.736;9.294;2022-09-03T05:16:32;3.10;;;1.60;;
51190;SDS011;37253;48.736;9.294;2022-09-03T05:18:33;2.42;;;1.27;;
51190;SDS011;37253;48.736;9.294;2022-09-03T05:20:36;2.17;;;1.30;;
51190;SDS011;37253;48.736;9.294;2022-09-03T05:22:37;2.42;;;1.40;;
51190;SDS011;37253;48.736;9.294;2022-09-03T05:24:37;1.65;;;1.33;;
51190;SDS011;37253;48.736;9.294;2022-09-03T05:26:38;2.55;;;1.40;;
51190;SDS011;37253;48.736;9.294;2022-09-03T05:28:38;2.33;;;1.83;;
51190;SDS011;37253;48.736;9.294;2022-09-03T05:30:40;2.30;;;1.42;;
51190;SDS011;37253;48.736;9.294;2022-09-03T05:32:41;5.22;;;1.40;;
51190;SDS011;37253;48.736;9.294;2022-09-03T05:34:42;4.25;;;1.73;;
51190;SDS011;37253;48.736;9.294;2022-09-03T05:36:42;6.63;;;2.05;;
51190;SDS011;37253;48.736;9.294;2022-09-03T05:38:43;3.58;;;1.95;;
51190;SDS011;37253;48.736;9.294;2022-09-03T05:40:44;5.82;;;2.00;;
51190;SDS011;37253;48.736;9.294;2022-09-03T05:42:44;5.55;;;1.95;;
51190;SDS011;37253;48.736;9.294;2022-09-03T05:44:44;6.15;;;2.10;;
51190;SDS011;37253;48.736;9.294;2022-09-03T05:46:45;8.48;;;1.35;;
51190;SDS011;37253;48.736;9.294;2022-09-03T05:48:45;8.77;;;1.70;;
51190;SDS011;37253;48.736;9.294;2022-09-03T05:50:45;4.32;;;1.70;;
51190;SDS011;37253;48.736;9.294;2022-09-03T05:52:46;5.47;;;2.03;;
51190;SDS011;37253;48.736;9.294;2022-09-03T05:54:46;3.90;;;2.00;;
51190;SDS011;37253;48.736;9.294;2022-09-03T05:56:47;3.55;;;1.30;;
51190;SDS011;37253;48.736;9.294;2022-09-03T05:58:49;3.15;;;1.70;;
51190;SDS011;37253;48.736;9.294;2022-09-03T06:00:51;3.40;;;1.40;;
51190;SDS011;37253;48.736;9.294;2022-09-03T06:02:51;4.63;;;1.77;;
51190;SDS011;37253;48.736;9.294;2022-09-03T06:04:52;5.20;;;1.75;;
51190;SDS011;37253;48.736;9.294;2022-09-03T06:06:52;4.43;;;1.50;;
51190;SDS011;37253;48.736;9.294;2022-09-03T06:08:53;8.52;;;2.17;;
51190;SDS011;37253;48.736;9.294;2022-09-03T06:10:57;12.98;;;2.03;;
51190;SDS011;37253;48.736;9.294;2022-09-03T06:12:58;8.98;;;2.10;;
51190;SDS011;37253;48.736;9.294;2022-09-03T06:15:02;4.78;;;1.80;;
51190;SDS011;37253;48.736;9.294;2022-09-03T06:17:04;1.90;;;1.30;;
51190;SDS011;37253;48.736;9.294;2022-09-03T06:19:05;3.38;;;1.30;;
51190;SDS011;37253;48.736;9.294;2022-09-03T06:21:08;8.85;;;1.35;;
51190;SDS011;37253;48.736;9.294;2022-09-03T06:23:08;3.90;;;2.03;;
51190;SDS011;37253;48.736;9.294;2022-09-03T06:25:09;7.50;;;1.40;;
51190;SDS011;37253;48.736;9.294;2022-09-03T06:27:10;4.38;;;1.70;;
51190;SDS011;37253;48.736;9.294;2022-09-03T06:29:10;4.25;;;1.75;;
51190;SDS011;37253;48.736;9.294;2022-09-03T06:31:12;4.53;;;1.73;;
51190;SDS011;37253;48.736;9.294;2022-09-03T06:33:13;9.05;;;1.50;;
51190;SDS011;37253;48.736;9.294;2022-09-03T06:35:15;4.03;;;1.60;;
51190;SDS011;37253;48.736;9.294;2022-09-03T06:37:15;4.82;;;1.42;;
51190;SDS011;37253;48.736;9.294;2022-09-03T06:39:16;3.15;;;1.65;;
51190;SDS011;37253;48.736;9.294;2022-09-03T06:41:17;3.95;;;1.40;;
51190;SDS011;37253;48.736;9.294;2022-09-03T06:43:23;1.90;;;1.30;;
51190;SDS011;37253;48.736;9.294;2022-09-03T06:45:25;6.32;;;1.70;;
51190;SDS011;37253;48.736;9.294;2022-09-03T06:47:25;2.47;;;1.60;;
51190;SDS011;37253;48.736;9.294;2022-09-03T06:49:26;4.05;;;1.40;;
51190;SDS011;37253;48.736;9.294;2022-09-03T06:51:26;3.28;;;1.58;;
51190;SDS011;37253;48.736;9.294;2022-09-03T06:53:29;3.33;;;1.25;;
51190;SDS011;37253;48.736;9.294;2022-09-03T06:55:31;3.22;;;1.30;;
51190;SDS011;37253;48.736;9.294;2022-09-03T06:57:31;2.90;;;1.33;;
51190;SDS011;37253;48.736;9.294;2022-09-03T06:59:31;3.17;;;1.33;;
51190;SDS011;37253;48.736;9.294;2022-09-03T07:01:32;4.60;;;1.48;;
51190;SDS011;37253;48.736;9.294;2022-09-03T07:03:36;7.13;;;1.65;;
51190;SDS011;37253;48.736;9.294;2022-09-03T07:05:37;5.65;;;1.42;;
51190;SDS011;37253;48.736;9.294;2022-09-03T07:07:38;2.63;;;1.30;;
51190;SDS011;37253;48.736;9.294;2022-09-03T07:09:39;2.03;;;1.17;;
51190;SDS011;37253;48.736;9.294;2022-09-03T07:11:39;2.45;;;1.42;;
51190;SDS011;37253;48.736;9.294;2022-09-03T07:13:46;2.83;;;1.60;;
51190;SDS011;37253;48.736;9.294;2022-09-03T07:15:47;4.70;;;1.40;;
51190;SDS011;37253;48.736;9.294;2022-09-03T07:17:58;2.78;;;1.58;;
51190;SDS011;37253;48.736;9.294;2022-09-03T07:19:58;6.07;;;1.40;;
51190;SDS011;37253;48.736;9.294;2022-09-03T07:21:59;3.92;;;1.60;;
51190;SDS011;37253;48.736;9.294;2022-09-03T07:23:59;5.68;;;1.40;;
51190;SDS011;37253;48.736;9.294;2022-09-03T07:26:02;6.15;;;1.40;;
51190;SDS011;37253;48.736;9.294;2022-09-03T07:28:04;4.05;;;1.30;;
51190;SDS011;37253;48.736;9.294;2022-09-03T07:30:05;2.53;;;1.30;;
51190;SDS011;37253;48.736;9.294;2022-09-03T07:32:09;3.00;;;1.40;;
51190;SDS011;37253;48.736;9.294;2022-09-03T07:34:10;1.55;;;1.30;;
51190;SDS011;37253;48.736;9.294;2022-09-03T07:36:13;2.47;;;1.33;;
51190;SDS011;37253;48.736;9.294;2022-09-03T07:38:18;1.30;;;1.20;;
51190;SDS011;37253;48.736;9.294;2022-09-03T07:40:23;5.07;;;1.85;;
51190;SDS011;37253;48.736;9.294;2022-09-03T07:42:23;1.92;;;1.33;;
51190;SDS011;37253;48.736;9.294;2022-09-03T07:44:25;3.85;;;1.40;;
51190;SDS011;37253;48.736;9.294;2022-09-03T07:46:27;3.20;;;1.38;;
51190;SDS011;37253;48.736;9.294;2022-09-03T07:48:27;2.55;;;1.67;;
51190;SDS011;37253;48.736;9.294;2022-09-03T07:50:28;2.78;;;1.52;;
51190;SDS011;37253;48.736;9.294;2022-09-03T07:52:31;1.83;;;1.35;;
51190;SDS011;37253;48.736;9.294;2022-09-03T07:54:32;1.75;;;1.30;;
51190;SDS011;37253;48.736;9.294;2022-09-03T07:56:32;2.92;;;1.15;;
51190;SDS011;37253;48.736;9.294;2022-09-03T07:58:37;2.22;;;1.30;;
51190;SDS011;37253;48.736;9.294;2022-09-03T08:00:37;3.67;;;1.55;;
51190;SDS011;37253;48.736;9.294;2022-09-03T08:02:38;2.13;;;1.20;;
51190;SDS011;37253;48.736;9.294;2022-09-03T08:04:39;2.15;;;1.33;;
51190;SDS011;37253;48.736;9.294;2022-09-03T08:06:39;4.13;;;1.27;;
51190;SDS011;37253;48.736;9.294;2022-09-03T08:08:41;4.72;;;1.40;;
51190;SDS011;37253;48.736;9.294;2022-09-03T08:10:44;4.47;;;1.33;;
51190;SDS011;37253;48.736;9.294;2022-09-03T08:12:44;4.30;;;1.92;;
51190;SDS011;37253;48.736;9.294;2022-09-03T08:14:44;5.28;;;1.48;;
51190;SDS011;37253;48.736;9.294;2022-09-03T08:16:45;2.60;;;1.33;;
51190;SDS011;37253;48.736;9.294;2022-09-03T08:18:48;5.35;;;1.30;;
51190;SDS011;37253;48.736;9.294;2022-09-03T08:20:50;6.85;;;1.63;;
51190;SDS011;37253;48.736;9.294;2022-09-03T08:22:50;3.20;;;1.40;;
51190;SDS011;37253;48.736;9.294;2022-09-03T08:24:50;4.32;;;1.45;;
51190;SDS011;37253;48.736;9.294;2022-09-03T08:26:53;3.95;;;1.50;;
51190;SDS011;37253;48.736;9.294;2022-09-03T08:28:53;3.88;;;1.55;;
51190;SDS011;37253;48.736;9.294;2022-09-03T08:30:54;3.95;;;1.48;;
51190;SDS011;37253;48.736;9.294;2022-09-03T08:32:54;2.53;;;1.52;;
51190;SDS011;37253;48.736;9.294;2022-09-03T08:34:55;5.22;;;1.52;;
51190;SDS011;37253;48.736;9.294;2022-09-03T08:36:55;5.60;;;1.77;;
51190;SDS011;37253;48.736;9.294;2022-09-03T08:38:56;3.33;;;1.48;;
51190;SDS011;37253;48.736;9.294;2022-09-03T08:41:42;4.15;;;1.70;;
51190;SDS011;37253;48.736;9.294;2022-09-03T08:43:34;2.90;;;1.35;;
51190;SDS011;37253;48.736;9.294;2022-09-03T08:45:42;5.22;;;1.50;;
51190;SDS011;37253;48.736;9.294;2022-09-03T08:47:44;4.28;;;1.50;;
51190;SDS011;37253;48.736;9.294;2022-09-03T08:52:04;3.28;;;1.23;;
51190;SDS011;37253;48.736;9.294;2022-09-03T08:54:08;4.32;;;1.52;;
51190;SDS011;37253;48.736;9.294;2022-09-03T08:56:11;2.50;;;1.63;;
51190;SDS011;37253;48.736;9.294;2022-09-03T08:58:18;2.17;;;1.60;;
51190;SDS011;37253;48.736;9.294;2022-09-03T09:00:19;4.35;;;1.48;;
51190;SDS011;37253;48.736;9.294;2022-09-03T09:02:42;5.38;;;1.75;;
51190;SDS011;37253;48.736;9.294;2022-09-03T09:05:33;2.92;;;1.55;;
51190;SDS011;37253;48.736;9.294;2022-09-03T09:10:23;2.15;;;1.35;;
51190;SDS011;37253;48.736;9.294;2022-09-03T09:12:28;3.67;;;1.45;;
51190;SDS011;37253;48.736;9.294;2022-09-03T09:21:50;2.25;;;1.63;;
51190;SDS011;37253;48.736;9.294;2022-09-03T09:23:53;2.95;;;1.60;;
51190;SDS011;37253;48.736;9.294;2022-09-03T09:25:58;3.20;;;1.50;;
51190;SDS011;37253;48.736;9.294;2022-09-03T09:30:00;1.42;;;1.33;;
51190;SDS011;37253;48.736;9.294;2022-09-03T09:32:03;1.70;;;1.60;;
51190;SDS011;37253;48.736;9.294;2022-09-03T09:34:07;3.35;;;1.73;;
51190;SDS011;37253;48.736;9.294;2022-09-03T09:36:09;2.33;;;1.50;;
51190;SDS011;37253;48.736;9.294;2022-09-03T09:40:20;1.58;;;1.42;;
51190;SDS011;37253;48.736;9.294;2022-09-03T09:42:25;2.58;;;1.40;;
51190;SDS011;37253;48.736;9.294;2022-09-03T09:44:28;2.38;;;1.23;;
51190;SDS011;37253;48.736;9.294;2022-09-03T09:46:32;1.67;;;1.58;;
51190;SDS011;37253;48.736;9.294;2022-09-03T09:48:38;2.53;;;1.45;;
51190;SDS011;37253;48.736;9.294;2022-09-03T09:50:45;3.20;;;1.65;;
51190;SDS011;37253;48.736;9.294;2022-09-03T09:52:45;3.60;;;1.70;;
51190;SDS011;37253;48.736;9.294;2022-09-03T09:54:46;2.03;;;1.52;;
51190;SDS011;37253;48.736;9.294;2022-09-03T09:56:56;3.28;;;1.45;;
51190;SDS011;37253;48.736;9.294;2022-09-03T09:59:05;2.75;;;1.85;;
51190;SDS011;37253;48.736;9.294;2022-09-03T10:01:22;2.75;;;1.92;;
51190;SDS011;37253;48.736;9.294;2022-09-03T10:03:24;2.42;;;1.60;;
51190;SDS011;37253;48.736;9.294;2022-09-03T10:05:30;2.25;;;1.52;;
51190;SDS011;37253;48.736;9.294;2022-09-03T10:07:36;1.67;;;1.45;;
51190;SDS011;37253;48.736;9.294;2022-09-03T10:09:37;2.15;;;1.52;;
51190;SDS011;37253;48.736;9.294;2022-09-03T10:11:38;3.17;;;1.65;;
51190;SDS011;37253;48.736;9.294;2022-09-03T10:13:41;5.10;;;1.83;;
51190;SDS011;37253;48.736;9.294;2022-09-03T10:18:16;2.65;;;1.67;;
51190;SDS011;37253;48.736;9.294;2022-09-03T10:23:17;1.60;;;1.50;;
51190;SDS011;37253;48.736;9.294;2022-09-03T10:25:20;2.03;;;1.70;;
51190;SDS011;37253;48.736;9.294;2022-09-03T10:27:21;2.97;;;1.67;;
51190;SDS011;37253;48.736;9.294;2022-09-03T10:29:22;1.70;;;1.50;;
51190;SDS011;37253;48.736;9.294;2022-09-03T10:32:12;2.63;;;1.90;;
51190;SDS011;37253;48.736;9.294;2022-09-03T10:36:05;3.60;;;1.52;;
51190;SDS011;37253;48.736;9.294;2022-09-03T10:43:13;2.03;;;1.50;;
51190;SDS011;37253;48.736;9.294;2022-09-03T10:50:44;2.05;;;1.73;;
51190;SDS011;37253;48.736;9.294;2022-09-03T10:59:35;2.78;;;1.55;;
51190;SDS011;37253;48.736;9.294;2022-09-03T11:06:12;2.05;;;1.85;;
51190;SDS011;37253;48.736;9.294;2022-09-03T11:08:22;2.03;;;1.83;;
51190;SDS011;37253;48.736;9.294;2022-09-03T11:10:54;1.63;;;1.52;;
51190;SDS011;37253;48.736;9.294;2022-09-03T11:15:23;1.70;;;1.50;;
51190;SDS011;37253;48.736;9.294;2022-09-03T11:17:27;2.85;;;2.03;;
51190;SDS011;37253;48.736;9.294;2022-09-03T11:19:35;2.38;;;1.77;;
51190;SDS011;37253;48.736;9.294;2022-09-03T11:21:40;1.80;;;1.70;;
51190;SDS011;37253;48.736;9.294;2022-09-03T11:23:43;2.05;;;1.85;;
51190;SDS011;37253;48.736;9.294;2022-09-03T11:25:47;1.75;;;1.65;;
51190;SDS011;37253;48.736;9.294;2022-09-03T11:30:09;1.92;;;1.73;;
51190;SDS011;37253;48.736;9.294;2022-09-03T11:32:29;2.03;;;1.80;;
51190;SDS011;37253;48.736;9.294;2022-09-03T11:34:45;2.25;;;1.60;;
51190;SDS011;37253;48.736;9.294;2022-09-03T11:36:47;3.15;;;1.60;;
51190;SDS011;37253;48.736;9.294;2022-09-03T11:38:47;2.88;;;1.63;;
51190;SDS011;37253;48.736;9.294;2022-09-03T11:40:56;2.97;;;1.75;;
51190;SDS011;37253;48.736;9.294;2022-09-03T11:43:09;1.80;;;1.70;;
51190;SDS011;37253;48.736;9.294;2022-09-03T11:47:40;2.30;;;1.90;;
51190;SDS011;37253;48.736;9.294;2022-09-03T11:49:44;2.55;;;1.88;;
51190;SDS011;37253;48.736;9.294;2022-09-03T11:51:54;2.28;;;2.08;;
51190;SDS011;37253;48.736;9.294;2022-09-03T12:00:16;2.30;;;1.80;;
51190;SDS011;37253;48.736;9.294;2022-09-03T12:02:27;2.13;;;1.92;;
51190;SDS011;37253;48.736;9.294;2022-09-03T12:04:39;2.35;;;1.90;;
51190;SDS011;37253;48.736;9.294;2022-09-03T12:15:57;2.13;;;1.98;;
51190;SDS011;37253;48.736;9.294;2022-09-03T12:18:04;4.13;;;2.03;;
51190;SDS011;37253;48.736;9.294;2022-09-03T12:20:19;3.13;;;2.00;;
51190;SDS011;37253;48.736;9.294;2022-09-03T12:22:21;5.28;;;2.20;;
51190;SDS011;37253;48.736;9.294;2022-09-03T12:24:26;4.40;;;1.90;;
51190;SDS011;37253;48.736;9.294;2022-09-03T12:26:37;3.30;;;2.15;;
51190;SDS011;37253;48.736;9.294;2022-09-03T12:28:39;8.52;;;2.65;;
51190;SDS011;37253;48.736;9.294;2022-09-03T12:30:41;7.25;;;2.33;;
51190;SDS011;37253;48.736;9.294;2022-09-03T12:32:42;12.35;;;2.28;;
51190;SDS011;37253;48.736;9.294;2022-09-03T12:34:44;7.97;;;2.15;;
51190;SDS011;37253;48.736;9.294;2022-09-03T12:36:47;8.07;;;2.03;;
51190;SDS011;37253;48.736;9.294;2022-09-03T12:38:51;5.70;;;2.13;;
51190;SDS011;37253;48.736;9.294;2022-09-03T12:40:52;5.35;;;2.03;;
51190;SDS011;37253;48.736;9.294;2022-09-03T12:42:54;4.50;;;1.70;;
51190;SDS011;37253;48.736;9.294;2022-09-03T12:44:54;6.43;;;2.25;;
51190;SDS011;37253;48.736;9.294;2022-09-03T12:47:06;6.65;;;2.05;;
51190;SDS011;37253;48.736;9.294;2022-09-03T12:49:13;9.00;;;2.15;;
51190;SDS011;37253;48.736;9.294;2022-09-03T12:51:13;17.13;;;2.20;;
51190;SDS011;37253;48.736;9.294;2022-09-03T12:53:18;8.00;;;2.20;;
51190;SDS011;37253;48.736;9.294;2022-09-03T12:57:54;11.82;;;1.80;;
51190;SDS011;37253;48.736;9.294;2022-09-03T13:00:16;13.93;;;2.42;;
51190;SDS011;37253;48.736;9.294;2022-09-03T13:02:24;9.93;;;2.30;;
51190;SDS011;37253;48.736;9.294;2022-09-03T13:04:28;6.30;;;2.17;;
51190;SDS011;37253;48.736;9.294;2022-09-03T13:11:03;6.78;;;2.33;;
51190;SDS011;37253;48.736;9.294;2022-09-03T13:13:18;6.38;;;2.05;;
51190;SDS011;37253;48.736;9.294;2022-09-03T13:15:24;3.78;;;1.90;;
51190;SDS011;37253;48.736;9.294;2022-09-03T13:17:28;4.97;;;1.60;;
51190;SDS011;37253;48.736;9.294;2022-09-03T13:19:55;6.47;;;1.98;;
51190;SDS011;37253;48.736;9.294;2022-09-03T13:29:38;5.38;;;1.88;;
51190;SDS011;37253;48.736;9.294;2022-09-03T13:31:57;2.40;;;1.50;;
51190;SDS011;37253;48.736;9.294;2022-09-03T13:34:08;4.32;;;1.45;;
51190;SDS011;37253;48.736;9.294;2022-09-03T13:36:15;2.47;;;1.55;;
51190;SDS011;37253;48.736;9.294;2022-09-03T13:40:21;3.75;;;1.40;;
51190;SDS011;37253;48.736;9.294;2022-09-03T13:44:43;2.92;;;1.25;;
51190;SDS011;37253;48.736;9.294;2022-09-03T13:49:52;4.25;;;1.58;;
51190;SDS011;37253;48.736;9.294;2022-09-03T13:52:03;6.18;;;1.60;;
51190;SDS011;37253;48.736;9.294;2022-09-03T13:54:10;3.88;;;1.40;;
51190;SDS011;37253;48.736;9.294;2022-09-03T13:58:45;4.10;;;1.50;;
51190;SDS011;37253;48.736;9.294;2022-09-03T14:00:49;5.75;;;1.30;;
51190;SDS011;37253;48.736;9.294;2022-09-03T14:05:12;1.95;;;1.17;;
51190;SDS011;37253;48.736;9.294;2022-09-03T14:07:14;4.38;;;1.23;;
51190;SDS011;37253;48.736;9.294;2022-09-03T14:09:32;3.15;;;1.17;;
51190;SDS011;37253;48.736;9.294;2022-09-03T14:11:51;2.08;;;1.25;;
51190;SDS011;37253;48.736;9.294;2022-09-03T14:18:58;1.95;;;1.00;;
51190;SDS011;37253;48.736;9.294;2022-09-03T14:25:17;2.22;;;0.90;;
51190;SDS011;37253;48.736;9.294;2022-09-03T14:27:26;3.55;;;1.25;;
51190;SDS011;37253;48.736;9.294;2022-09-03T14:29:34;2.10;;;1.17;;
51190;SDS011;37253;48.736;9.294;2022-09-03T14:36:39;5.78;;;1.05;;
51190;SDS011;37253;48.736;9.294;2022-09-03T14:41:28;2.63;;;1.30;;
51190;SDS011;37253;48.736;9.294;2022-09-03T14:55:17;1.33;;;0.90;;
51190;SDS011;37253;48.736;9.294;2022-09-03T15:02:24;1.38;;;0.80;;
51190;SDS011;37253;48.736;9.294;2022-09-03T15:04:48;1.75;;;1.10;;
51190;SDS011;37253;48.736;9.294;2022-09-03T15:09:53;1.38;;;0.82;;
51190;SDS011;37253;48.736;9.294;2022-09-03T15:12:07;2.08;;;0.90;;
51190;SDS011;37253;48.736;9.294;2022-09-03T15:14:13;2.50;;;0.93;;
51190;SDS011;37253;48.736;9.294;2022-09-03T15:19:06;2.92;;;0.88;;
51190;SDS011;37253;48.736;9.294;2022-09-03T15:29:57;6.22;;;1.20;;
51190;SDS011;37253;48.736;9.294;2022-09-03T15:32:07;13.95;;;1.33;;
51190;SDS011;37253;48.736;9.294;2022-09-03T15:38:24;6.40;;;1.20;;
51190;SDS011;37253;48.736;9.294;2022-09-03T15:40:34;6.45;;;1.00;;
51190;SDS011;37253;48.736;9.294;2022-09-03T15:42:44;6.18;;;1.65;;
51190;SDS011;37253;48.736;9.294;2022-09-03T15:44:47;2.83;;;0.80;;
51190;SDS011;37253;48.736;9.294;2022-09-03T15:47:05;2.83;;;0.90;;
51190;SDS011;37253;48.736;9.294;2022-09-03T15:49:22;2.95;;;0.90;;
51190;SDS011;37253;48.736;9.294;2022-09-03T15:54:09;10.35;;;1.20;;